sensor_id;sensor_type;location;lat;lon;timestamp;pressure;altitude;pressure_sealevel;temperature;humidity
48652;BME280;34442;52.362;-1.302;2023-03-20T00:00:08;100323.78;;;9.08;100.00
48652;BME280;34442;52.362;-1.302;2023-03-20T00:02:34;100325.69;;;9.14;100.00
48652;BME280;34442;52.362;-1.302;2023-03-20T00:05:00;100321.97;;;9.15;100.00
48652;BME280;34442;52.362;-1.302;2023-03-20T00:07:25;100321.31;;;9.13;100.00
48652;BME280;34442;52.362;-1.302;2023-03-20T00:09:51;100321.31;;;9.13;100.00
48652;BME280;34442;52.362;-1.302;2023-03-20T00:12:19;100321.75;;;9.16;100.00
48652;BME280;34442;52.362;-1.302;2023-03-20T00:14:46;100322.59;;;9.17;100.00
48652;BME280;34442;52.362;-1.302;2023-03-20T00:17:12;100325.09;;;9.18;100.00
48652;BME280;34442;52.362;-1.302;2023-03-20T00:19:42;100332.91;;;9.20;100.00
48652;BME280;34442;52.362;-1.302;2023-03-20T00:22:07;100337.41;;;9.06;100.00
48652;BME280;34442;52.362;-1.302;2023-03-20T00:24:32;100340.53;;;9.16;100.00
48652;BME280;34442;52.362;-1.302;2023-03-20T00:26:57;100338.66;;;9.17;100.00
48652;BME280;34442;52.362;-1.302;2023-03-20T00:29:24;100342.00;;;9.19;100.00
48652;BME280;34442;52.362;-1.302;2023-03-20T00:31:50;100332.91;;;9.13;100.00
48652;BME280;34442;52.362;-1.302;2023-03-20T00:34:17;100325.09;;;9.18;100.00
48652;BME280;34442;52.362;-1.302;2023-03-20T00:36:43;100320.53;;;9.19;100.00
48652;BME280;34442;52.362;-1.302;2023-03-20T00:39:09;100325.91;;;9.19;100.00
48652;BME280;34442;52.362;-1.302;2023-03-20T00:44:24;100316.38;;;9.10;100.00
48652;BME280;34442;52.362;-1.302;2023-03-20T00:46:49;100325.03;;;9.12;100.00
48652;BME280;34442;52.362;-1.302;2023-03-20T00:49:15;100314.91;;;9.07;100.00
48652;BME280;34442;52.362;-1.302;2023-03-20T00:51:41;100309.34;;;9.09;100.00
48652;BME280;34442;52.362;-1.302;2023-03-20T00:54:13;100314.09;;;9.07;100.00
48652;BME280;34442;52.362;-1.302;2023-03-20T00:56:46;100308.50;;;9.02;100.00
48652;BME280;34442;52.362;-1.302;2023-03-20T00:59:14;100316.78;;;9.07;100.00
48652;BME280;34442;52.362;-1.302;2023-03-20T01:01:40;100298.00;;;9.07;100.00
48652;BME280;34442;52.362;-1.302;2023-03-20T01:04:09;100293.47;;;9.07;100.00
48652;BME280;34442;52.362;-1.302;2023-03-20T01:06:35;100296.13;;;9.07;100.00
48652;BME280;34442;52.362;-1.302;2023-03-20T01:09:01;100281.69;;;9.08;100.00
48652;BME280;34442;52.362;-1.302;2023-03-20T01:11:27;100283.78;;;9.06;100.00
48652;BME280;34442;52.362;-1.302;2023-03-20T01:13:53;100288.31;;;9.12;100.00
48652;BME280;34442;52.362;-1.302;2023-03-20T01:16:19;100287.28;;;9.07;100.00
48652;BME280;34442;52.362;-1.302;2023-03-20T01:18:45;100280.88;;;9.01;100.00
48652;BME280;34442;52.362;-1.302;2023-03-20T01:21:10;100282.50;;;9.02;100.00
48652;BME280;34442;52.362;-1.302;2023-03-20T01:23:36;100270.34;;;9.06;100.00
48652;BME280;34442;52.362;-1.302;2023-03-20T01:26:01;100282.47;;;8.61;100.00
48652;BME280;34442;52.362;-1.302;2023-03-20T01:28:26;100277.41;;;8.44;100.00
48652;BME280;34442;52.362;-1.302;2023-03-20T01:30:53;100283.00;;;8.50;100.00
48652;BME280;34442;52.362;-1.302;2023-03-20T01:33:20;100275.56;;;8.45;100.00
48652;BME280;34442;52.362;-1.302;2023-03-20T01:35:45;100273.66;;;8.39;100.00
48652;BME280;34442;52.362;-1.302;2023-03-20T01:38:17;100274.16;;;8.49;100.00
48652;BME280;34442;52.362;-1.302;2023-03-20T01:43:12;100271.50;;;8.56;100.00
48652;BME280;34442;52.362;-1.302;2023-03-20T01:45:38;100264.69;;;8.53;100.00
48652;BME280;34442;52.362;-1.302;2023-03-20T01:48:11;100268.66;;;8.57;100.00
48652;BME280;34442;52.362;-1.302;2023-03-20T01:50:38;100267.41;;;8.60;100.00
48652;BME280;34442;52.362;-1.302;2023-03-20T01:53:06;100268.66;;;8.57;100.00
48652;BME280;34442;52.362;-1.302;2023-03-20T01:55:32;100266.13;;;8.56;100.00
48652;BME280;34442;52.362;-1.302;2023-03-20T01:57:59;100248.91;;;8.65;100.00
48652;BME280;34442;52.362;-1.302;2023-03-20T02:00:27;100246.47;;;8.70;100.00
48652;BME280;34442;52.362;-1.302;2023-03-20T02:02:52;100236.34;;;8.72;100.00
48652;BME280;34442;52.362;-1.302;2023-03-20T02:05:19;100240.66;;;8.66;100.00
48652;BME280;34442;52.362;-1.302;2023-03-20T02:07:48;100234.88;;;8.63;100.00
48652;BME280;34442;52.362;-1.302;2023-03-20T02:10:15;100229.34;;;8.71;100.00
48652;BME280;34442;52.362;-1.302;2023-03-20T02:12:42;100230.16;;;8.65;100.00
48652;BME280;34442;52.362;-1.302;2023-03-20T02:15:08;100222.88;;;8.59;100.00
48652;BME280;34442;52.362;-1.302;2023-03-20T02:17:33;100217.91;;;8.56;100.00
48652;BME280;34442;52.362;-1.302;2023-03-20T02:20:08;100211.56;;;8.63;100.00
48652;BME280;34442;52.362;-1.302;2023-03-20T02:53:51;100206.88;;;8.09;100.00
48652;BME280;34442;52.362;-1.302;2023-03-20T02:56:34;100196.97;;;8.03;100.00
48652;BME280;34442;52.362;-1.302;2023-03-20T02:59:05;100201.53;;;8.09;100.00
48652;BME280;34442;52.362;-1.302;2023-03-20T03:01:41;100196.06;;;7.96;100.00
48652;BME280;34442;52.362;-1.302;2023-03-20T03:06:34;100206.44;;;8.06;100.00
48652;BME280;34442;52.362;-1.302;2023-03-20T03:09:02;100196.38;;;8.08;100.00
48652;BME280;34442;52.362;-1.302;2023-03-20T03:11:30;100187.97;;;8.11;100.00
48652;BME280;34442;52.362;-1.302;2023-03-20T03:13:58;100184.19;;;8.05;100.00
48652;BME280;34442;52.362;-1.302;2023-03-20T03:16:31;100189.59;;;8.12;100.00
48652;BME280;34442;52.362;-1.302;2023-03-20T03:19:08;100176.84;;;8.14;100.00
48652;BME280;34442;52.362;-1.302;2023-03-20T03:21:35;100187.81;;;8.19;100.00
48652;BME280;34442;52.362;-1.302;2023-03-20T03:24:01;100183.72;;;8.23;100.00
48652;BME280;34442;52.362;-1.302;2023-03-20T03:26:28;100177.88;;;8.13;100.00
48652;BME280;34442;52.362;-1.302;2023-03-20T03:29:14;100182.03;;;8.22;100.00
48652;BME280;34442;52.362;-1.302;2023-03-20T03:31:42;100168.06;;;8.27;100.00
48652;BME280;34442;52.362;-1.302;2023-03-20T03:34:10;100169.06;;;8.19;100.00
48652;BME280;34442;52.362;-1.302;2023-03-20T03:36:42;100164.53;;;8.19;100.00
48652;BME280;34442;52.362;-1.302;2023-03-20T03:41:44;100151.38;;;8.25;100.00
48652;BME280;34442;52.362;-1.302;2023-03-20T03:44:14;100150.56;;;8.24;100.00
48652;BME280;34442;52.362;-1.302;2023-03-20T03:49:18;100154.50;;;8.28;100.00
48652;BME280;34442;52.362;-1.302;2023-03-20T03:51:45;100154.88;;;8.25;100.00
48652;BME280;34442;52.362;-1.302;2023-03-20T03:54:19;100152.03;;;8.33;100.00
48652;BME280;34442;52.362;-1.302;2023-03-20T03:56:47;100151.00;;;8.34;100.00
48652;BME280;34442;52.362;-1.302;2023-03-20T03:59:23;100154.31;;;8.36;100.00
48652;BME280;34442;52.362;-1.302;2023-03-20T04:01:50;100149.44;;;8.40;100.00
48652;BME280;34442;52.362;-1.302;2023-03-20T04:04:16;100141.91;;;8.29;100.00
48652;BME280;34442;52.362;-1.302;2023-03-20T04:06:43;100151.44;;;8.31;100.00
48652;BME280;34442;52.362;-1.302;2023-03-20T04:09:08;100147.38;;;8.42;100.00
48652;BME280;34442;52.362;-1.302;2023-03-20T04:11:33;100141.03;;;8.50;100.00
48652;BME280;34442;52.362;-1.302;2023-03-20T04:13:59;100132.38;;;8.48;100.00
48652;BME280;34442;52.362;-1.302;2023-03-20T04:16:25;100140.19;;;8.49;100.00
48652;BME280;34442;52.362;-1.302;2023-03-20T04:18:51;100135.06;;;8.48;100.00
48652;BME280;34442;52.362;-1.302;2023-03-20T04:21:16;100128.41;;;8.37;100.00
48652;BME280;34442;52.362;-1.302;2023-03-20T04:23:42;100130.81;;;8.32;100.00
48652;BME280;34442;52.362;-1.302;2023-03-20T04:26:08;100133.38;;;8.40;100.00
48652;BME280;34442;52.362;-1.302;2023-03-20T04:28:33;100133.84;;;8.57;100.00
48652;BME280;34442;52.362;-1.302;2023-03-20T04:30:59;100132.00;;;8.64;100.00
48652;BME280;34442;52.362;-1.302;2023-03-20T04:33:25;100128.53;;;8.70;100.00
48652;BME280;34442;52.362;-1.302;2023-03-20T04:35:50;100126.84;;;8.62;100.00
48652;BME280;34442;52.362;-1.302;2023-03-20T04:38:16;100129.56;;;8.69;100.00
48652;BME280;34442;52.362;-1.302;2023-03-20T04:40:42;100131.84;;;8.72;100.00
48652;BME280;34442;52.362;-1.302;2023-03-20T04:43:07;100119.28;;;8.73;100.00
48652;BME280;34442;52.362;-1.302;2023-03-20T04:45:33;100127.28;;;8.66;100.00
48652;BME280;34442;52.362;-1.302;2023-03-20T04:47:58;100121.97;;;8.73;100.00
48652;BME280;34442;52.362;-1.302;2023-03-20T04:50:23;100124.44;;;8.74;100.00
48652;BME280;34442;52.362;-1.302;2023-03-20T04:52:49;100130.00;;;8.79;100.00
48652;BME280;34442;52.362;-1.302;2023-03-20T04:55:14;100133.94;;;8.83;100.00
48652;BME280;34442;52.362;-1.302;2023-03-20T04:57:40;100129.84;;;8.87;100.00
48652;BME280;34442;52.362;-1.302;2023-03-20T05:00:05;100124.47;;;8.81;100.00
48652;BME280;34442;52.362;-1.302;2023-03-20T05:02:31;100125.31;;;8.94;100.00
48652;BME280;34442;52.362;-1.302;2023-03-20T05:04:56;100133.78;;;8.98;100.00
48652;BME280;34442;52.362;-1.302;2023-03-20T05:07:22;100136.25;;;8.93;100.00
48652;BME280;34442;52.362;-1.302;2023-03-20T05:09:47;100134.22;;;9.02;100.00
48652;BME280;34442;52.362;-1.302;2023-03-20T05:12:12;100133.56;;;9.00;100.00
48652;BME280;34442;52.362;-1.302;2023-03-20T05:14:37;100130.88;;;8.86;100.00
48652;BME280;34442;52.362;-1.302;2023-03-20T05:17:03;100130.91;;;8.93;100.00
48652;BME280;34442;52.362;-1.302;2023-03-20T05:19:28;100136.44;;;8.91;100.00
48652;BME280;34442;52.362;-1.302;2023-03-20T05:21:53;100127.81;;;9.03;100.00
48652;BME280;34442;52.362;-1.302;2023-03-20T05:24:18;100123.69;;;9.00;100.00
48652;BME280;34442;52.362;-1.302;2023-03-20T05:26:44;100130.91;;;9.00;100.00
48652;BME280;34442;52.362;-1.302;2023-03-20T05:29:09;100124.28;;;8.95;100.00
48652;BME280;34442;52.362;-1.302;2023-03-20T05:31:35;100128.44;;;8.98;100.00
48652;BME280;34442;52.362;-1.302;2023-03-20T05:34:00;100129.84;;;9.01;100.00
48652;BME280;34442;52.362;-1.302;2023-03-20T05:36:25;100123.69;;;9.00;100.00
48652;BME280;34442;52.362;-1.302;2023-03-20T05:38:51;100125.34;;;9.08;100.00
48652;BME280;34442;52.362;-1.302;2023-03-20T05:41:16;100129.28;;;9.12;100.00
48652;BME280;34442;52.362;-1.302;2023-03-20T05:43:41;100118.38;;;9.13;100.00
48652;BME280;34442;52.362;-1.302;2023-03-20T05:46:07;100123.31;;;9.10;100.00
48652;BME280;34442;52.362;-1.302;2023-03-20T05:48:32;100121.03;;;9.13;100.00
48652;BME280;34442;52.362;-1.302;2023-03-20T05:50:57;100116.28;;;9.15;100.00
48652;BME280;34442;52.362;-1.302;2023-03-20T05:53:23;100118.75;;;9.17;100.00
48652;BME280;34442;52.362;-1.302;2023-03-20T05:55:48;100122.06;;;9.19;100.00
48652;BME280;34442;52.362;-1.302;2023-03-20T05:58:13;100121.25;;;9.18;100.00
48652;BME280;34442;52.362;-1.302;2023-03-20T06:00:38;100115.69;;;9.20;100.00
48652;BME280;34442;52.362;-1.302;2023-03-20T06:03:04;100123.31;;;9.23;100.00
48652;BME280;34442;52.362;-1.302;2023-03-20T06:05:31;100122.50;;;9.23;100.00
48652;BME280;34442;52.362;-1.302;2023-03-20T06:07:56;100124.34;;;9.22;100.00
48652;BME280;34442;52.362;-1.302;2023-03-20T06:10:21;100121.69;;;9.22;100.00
48652;BME280;34442;52.362;-1.302;2023-03-20T06:12:47;100130.53;;;9.29;100.00
48652;BME280;34442;52.362;-1.302;2023-03-20T06:15:12;100126.00;;;9.30;100.00
48652;BME280;34442;52.362;-1.302;2023-03-20T06:17:37;100136.31;;;9.33;100.00
48652;BME280;34442;52.362;-1.302;2023-03-20T06:20:03;100132.22;;;9.30;100.00
48652;BME280;34442;52.362;-1.302;2023-03-20T06:22:28;100135.72;;;9.37;100.00
48652;BME280;34442;52.362;-1.302;2023-03-20T06:24:53;100132.00;;;9.38;100.00
48652;BME280;34442;52.362;-1.302;2023-03-20T06:27:19;100129.94;;;9.40;100.00
48652;BME280;34442;52.362;-1.302;2023-03-20T06:29:45;100130.97;;;9.39;100.00
48652;BME280;34442;52.362;-1.302;2023-03-20T06:32:10;100142.31;;;9.41;100.00
48652;BME280;34442;52.362;-1.302;2023-03-20T06:34:37;100138.81;;;9.41;100.00
48652;BME280;34442;52.362;-1.302;2023-03-20T06:37:02;100142.72;;;9.45;100.00
48652;BME280;34442;52.362;-1.302;2023-03-20T06:39:27;100142.56;;;9.47;100.00
48652;BME280;34442;52.362;-1.302;2023-03-20T06:41:53;100137.78;;;9.49;100.00
48652;BME280;34442;52.362;-1.302;2023-03-20T06:44:18;100144.41;;;9.53;100.00
48652;BME280;34442;52.362;-1.302;2023-03-20T06:46:44;100147.50;;;9.56;100.00
48652;BME280;34442;52.362;-1.302;2023-03-20T06:49:09;100138.81;;;9.54;100.00
48652;BME280;34442;52.362;-1.302;2023-03-20T06:51:34;100144.59;;;9.58;100.00
48652;BME280;34442;52.362;-1.302;2023-03-20T06:54:00;100153.69;;;9.63;100.00
48652;BME280;34442;52.362;-1.302;2023-03-20T06:56:25;100152.66;;;9.64;100.00
48652;BME280;34442;52.362;-1.302;2023-03-20T06:58:53;100152.03;;;9.69;100.00
48652;BME280;34442;52.362;-1.302;2023-03-20T07:01:18;100152.69;;;9.71;100.00
48652;BME280;34442;52.362;-1.302;2023-03-20T07:03:44;100148.13;;;9.65;100.00
48652;BME280;34442;52.362;-1.302;2023-03-20T07:06:10;100149.34;;;9.69;100.00
48652;BME280;34442;52.362;-1.302;2023-03-20T07:08:36;100141.31;;;9.76;100.00
48652;BME280;34442;52.362;-1.302;2023-03-20T07:11:02;100151.22;;;9.82;100.00
48652;BME280;34442;52.362;-1.302;2023-03-20T07:13:28;100151.00;;;9.83;100.00
48652;BME280;34442;52.362;-1.302;2023-03-20T07:15:53;100136.56;;;9.84;100.00
48652;BME280;34442;52.362;-1.302;2023-03-20T07:18:19;100145.44;;;9.78;100.00
48652;BME280;34442;52.362;-1.302;2023-03-20T07:20:44;100147.91;;;9.80;100.00
48652;BME280;34442;52.362;-1.302;2023-03-20T07:23:10;100149.97;;;9.84;100.00
48652;BME280;34442;52.362;-1.302;2023-03-20T07:25:36;100150.59;;;9.86;100.00
48652;BME280;34442;52.362;-1.302;2023-03-20T07:28:01;100152.03;;;9.89;100.00
48652;BME280;34442;52.362;-1.302;2023-03-20T07:30:26;100152.00;;;9.95;100.00
48652;BME280;34442;52.362;-1.302;2023-03-20T07:32:52;100146.03;;;9.93;100.00
48652;BME280;34442;52.362;-1.302;2023-03-20T07:35:17;100149.16;;;9.97;100.00
48652;BME280;34442;52.362;-1.302;2023-03-20T07:37:43;100139.00;;;9.99;100.00
48652;BME280;34442;52.362;-1.302;2023-03-20T07:40:08;100139.41;;;10.03;100.00
48652;BME280;34442;52.362;-1.302;2023-03-20T07:42:34;100149.94;;;10.11;100.00
48652;BME280;34442;52.362;-1.302;2023-03-20T07:44:59;100142.88;;;10.23;100.00
48652;BME280;34442;52.362;-1.302;2023-03-20T07:47:25;100148.06;;;10.31;100.00
48652;BME280;34442;52.362;-1.302;2023-03-20T07:49:50;100148.88;;;10.32;100.00
48652;BME280;34442;52.362;-1.302;2023-03-20T07:52:16;100143.53;;;10.32;100.00
48652;BME280;34442;52.362;-1.302;2023-03-20T07:54:41;100153.03;;;10.34;100.00
48652;BME280;34442;52.362;-1.302;2023-03-20T07:57:06;100154.47;;;10.37;100.00
48652;BME280;34442;52.362;-1.302;2023-03-20T07:59:32;100147.84;;;10.39;100.00
48652;BME280;34442;52.362;-1.302;2023-03-20T08:01:57;100143.50;;;10.45;100.00
48652;BME280;34442;52.362;-1.302;2023-03-20T08:04:23;100147.19;;;10.51;100.00
48652;BME280;34442;52.362;-1.302;2023-03-20T08:06:48;100154.63;;;10.55;100.00
48652;BME280;34442;52.362;-1.302;2023-03-20T08:09:14;100155.03;;;10.59;100.00
48652;BME280;34442;52.362;-1.302;2023-03-20T08:11:39;100153.97;;;10.60;100.00
48652;BME280;34442;52.362;-1.302;2023-03-20T08:14:04;100164.50;;;10.61;100.00
48652;BME280;34442;52.362;-1.302;2023-03-20T08:16:30;100161.41;;;10.64;100.00
48652;BME280;34442;52.362;-1.302;2023-03-20T08:18:55;100156.03;;;10.64;100.00
48652;BME280;34442;52.362;-1.302;2023-03-20T08:21:26;100165.53;;;10.67;100.00
48652;BME280;34442;52.362;-1.302;2023-03-20T08:23:51;100161.38;;;10.71;100.00
48652;BME280;34442;52.362;-1.302;2023-03-20T08:26:16;100158.47;;;10.73;100.00
48652;BME280;34442;52.362;-1.302;2023-03-20T08:28:41;100162.78;;;10.80;100.00
48652;BME280;34442;52.362;-1.302;2023-03-20T08:31:07;100165.72;;;10.79;100.00
48652;BME280;34442;52.362;-1.302;2023-03-20T08:33:33;100153.50;;;10.83;100.00
48652;BME280;34442;52.362;-1.302;2023-03-20T08:35:58;100155.53;;;10.87;100.00
48652;BME280;34442;52.362;-1.302;2023-03-20T08:38:23;100158.56;;;10.98;100.00
48652;BME280;34442;52.362;-1.302;2023-03-20T08:40:49;100149.66;;;11.04;100.00
48652;BME280;34442;52.362;-1.302;2023-03-20T08:43:14;100152.53;;;11.02;100.00
48652;BME280;34442;52.362;-1.302;2023-03-20T08:45:39;100153.34;;;11.09;100.00
48652;BME280;34442;52.362;-1.302;2023-03-20T08:48:04;100160.75;;;11.14;100.00
48652;BME280;34442;52.362;-1.302;2023-03-20T08:50:30;100153.09;;;11.17;100.00
48652;BME280;34442;52.362;-1.302;2023-03-20T08:52:56;100163.19;;;11.22;100.00
48652;BME280;34442;52.362;-1.302;2023-03-20T08:55:21;100163.81;;;11.24;100.00
48652;BME280;34442;52.362;-1.302;2023-03-20T08:57:46;100166.06;;;11.27;100.00
48652;BME280;34442;52.362;-1.302;2023-03-20T09:00:13;100174.13;;;11.27;100.00
48652;BME280;34442;52.362;-1.302;2023-03-20T09:02:39;100170.84;;;11.25;100.00
48652;BME280;34442;52.362;-1.302;2023-03-20T09:05:05;100171.66;;;11.26;100.00
48652;BME280;34442;52.362;-1.302;2023-03-20T09:07:30;100176.63;;;11.29;100.00
48652;BME280;34442;52.362;-1.302;2023-03-20T09:09:56;100174.72;;;11.36;100.00
48652;BME280;34442;52.362;-1.302;2023-03-20T09:12:21;100177.41;;;11.36;100.00
48652;BME280;34442;52.362;-1.302;2023-03-20T09:14:46;100174.25;;;11.39;100.00
48652;BME280;34442;52.362;-1.302;2023-03-20T09:17:11;100171.94;;;11.49;100.00
48652;BME280;34442;52.362;-1.302;2023-03-20T09:19:37;100175.78;;;11.60;100.00
48652;BME280;34442;52.362;-1.302;2023-03-20T09:22:04;100163.50;;;11.71;100.00
48652;BME280;34442;52.362;-1.302;2023-03-20T09:24:30;100166.19;;;11.71;100.00
48652;BME280;34442;52.362;-1.302;2023-03-20T09:26:56;100171.06;;;11.80;100.00
48652;BME280;34442;52.362;-1.302;2023-03-20T09:29:22;100176.25;;;11.82;100.00
48652;BME280;34442;52.362;-1.302;2023-03-20T09:31:48;100169.81;;;11.89;100.00
48652;BME280;34442;52.362;-1.302;2023-03-20T09:34:13;100182.38;;;11.96;100.00
48652;BME280;34442;52.362;-1.302;2023-03-20T09:36:38;100180.59;;;12.08;100.00
48652;BME280;34442;52.362;-1.302;2023-03-20T09:39:03;100174.34;;;12.14;100.00
48652;BME280;34442;52.362;-1.302;2023-03-20T09:41:29;100171.41;;;12.15;100.00
48652;BME280;34442;52.362;-1.302;2023-03-20T09:49:01;100171.53;;;12.46;100.00
48652;BME280;34442;52.362;-1.302;2023-03-20T09:54:04;100174.59;;;12.68;100.00
48652;BME280;34442;52.362;-1.302;2023-03-20T09:56:31;100180.94;;;12.55;100.00
48652;BME280;34442;52.362;-1.302;2023-03-20T09:58:58;100183.78;;;12.41;100.00
48652;BME280;34442;52.362;-1.302;2023-03-20T10:01:26;100186.78;;;12.33;100.00
48652;BME280;34442;52.362;-1.302;2023-03-20T10:03:57;100186.56;;;12.35;100.00
48652;BME280;34442;52.362;-1.302;2023-03-20T10:06:22;100183.56;;;12.25;100.00
48652;BME280;34442;52.362;-1.302;2023-03-20T10:08:48;100187.84;;;12.32;100.00
48652;BME280;34442;52.362;-1.302;2023-03-20T10:16:44;100193.03;;;12.52;100.00
48652;BME280;34442;52.362;-1.302;2023-03-20T10:21:40;100175.72;;;12.60;100.00
48652;BME280;34442;52.362;-1.302;2023-03-20T10:24:09;100173.41;;;12.63;100.00
48652;BME280;34442;52.362;-1.302;2023-03-20T10:26:43;100180.66;;;12.81;100.00
48652;BME280;34442;52.362;-1.302;2023-03-20T10:29:14;100173.44;;;12.94;100.00
48652;BME280;34442;52.362;-1.302;2023-03-20T10:31:51;100166.59;;;13.09;100.00
48652;BME280;34442;52.362;-1.302;2023-03-20T10:37:13;100170.84;;;13.35;100.00
48652;BME280;34442;52.362;-1.302;2023-03-20T10:39:48;100167.22;;;13.42;100.00
48652;BME280;34442;52.362;-1.302;2023-03-20T10:42:18;100161.34;;;13.45;100.00
48652;BME280;34442;52.362;-1.302;2023-03-20T10:44:53;100169.44;;;13.45;100.00
48652;BME280;34442;52.362;-1.302;2023-03-20T10:47:20;100168.41;;;13.46;100.00
48652;BME280;34442;52.362;-1.302;2023-03-20T10:49:56;100172.88;;;13.52;100.00
48652;BME280;34442;52.362;-1.302;2023-03-20T10:52:30;100165.06;;;13.62;100.00
48652;BME280;34442;52.362;-1.302;2023-03-20T10:54:57;100162.91;;;13.64;100.00
48652;BME280;34442;52.362;-1.302;2023-03-20T10:57:26;100148.97;;;13.90;100.00
48652;BME280;34442;52.362;-1.302;2023-03-20T10:59:56;100157.22;;;14.07;100.00
48652;BME280;34442;52.362;-1.302;2023-03-20T11:02:29;100155.91;;;14.10;100.00
48652;BME280;34442;52.362;-1.302;2023-03-20T11:04:54;100152.28;;;14.28;100.00
48652;BME280;34442;52.362;-1.302;2023-03-20T11:09:45;100133.91;;;14.65;100.00
48652;BME280;34442;52.362;-1.302;2023-03-20T11:12:16;100131.81;;;14.84;100.00
48652;BME280;34442;52.362;-1.302;2023-03-20T11:14:43;100136.06;;;14.80;100.00
48652;BME280;34442;52.362;-1.302;2023-03-20T11:17:08;100137.25;;;14.72;100.00
48652;BME280;34442;52.362;-1.302;2023-03-20T11:19:35;100134.84;;;14.59;100.00
48652;BME280;34442;52.362;-1.302;2023-03-20T11:22:08;100137.44;;;14.42;100.00
48652;BME280;34442;52.362;-1.302;2023-03-20T11:29:54;100139.81;;;14.03;100.00
48652;BME280;34442;52.362;-1.302;2023-03-20T11:34:55;100148.50;;;14.17;100.00
48652;BME280;34442;52.362;-1.302;2023-03-20T11:37:28;100148.41;;;14.24;100.00
48652;BME280;34442;52.362;-1.302;2023-03-20T11:39:59;100143.66;;;14.43;100.00
48652;BME280;34442;52.362;-1.302;2023-03-20T11:42:26;100137.66;;;14.52;100.00
48652;BME280;34442;52.362;-1.302;2023-03-20T11:44:56;100142.25;;;14.63;100.00
48652;BME280;34442;52.362;-1.302;2023-03-20T11:47:21;100139.38;;;15.10;100.00
48652;BME280;34442;52.362;-1.302;2023-03-20T11:49:56;100127.31;;;15.18;100.00
48652;BME280;34442;52.362;-1.302;2023-03-20T11:52:23;100121.69;;;14.91;100.00
48652;BME280;34442;52.362;-1.302;2023-03-20T11:54:49;100115.38;;;14.85;100.00
48652;BME280;34442;52.362;-1.302;2023-03-20T11:57:30;100122.19;;;15.05;100.00
48652;BME280;34442;52.362;-1.302;2023-03-20T11:59:56;100122.16;;;15.17;100.00
48652;BME280;34442;52.362;-1.302;2023-03-20T12:02:22;100129.03;;;15.07;100.00
48652;BME280;34442;52.362;-1.302;2023-03-20T12:04:48;100115.38;;;14.85;100.00
48652;BME280;34442;52.362;-1.302;2023-03-20T12:07:18;100123.69;;;14.84;100.00
48652;BME280;34442;52.362;-1.302;2023-03-20T12:09:49;100108.50;;;14.95;100.00
48652;BME280;34442;52.362;-1.302;2023-03-20T12:14:46;100116.69;;;15.00;100.00
48652;BME280;34442;52.362;-1.302;2023-03-20T12:17:37;100113.69;;;15.13;100.00
48652;BME280;34442;52.362;-1.302;2023-03-20T12:20:10;100105.38;;;15.31;100.00
48652;BME280;34442;52.362;-1.302;2023-03-20T12:22:39;100101.66;;;15.21;100.00
48652;BME280;34442;52.362;-1.302;2023-03-20T12:25:25;100102.16;;;15.34;100.00
48652;BME280;34442;52.362;-1.302;2023-03-20T12:27:55;100112.50;;;15.37;100.00
48652;BME280;34442;52.362;-1.302;2023-03-20T12:30:29;100112.56;;;15.43;100.00
48652;BME280;34442;52.362;-1.302;2023-03-20T12:32:57;100108.66;;;15.50;100.00
48652;BME280;34442;52.362;-1.302;2023-03-20T12:35:29;100101.50;;;15.27;100.00
48652;BME280;34442;52.362;-1.302;2023-03-20T12:37:55;100106.31;;;15.08;100.00
48652;BME280;34442;52.362;-1.302;2023-03-20T12:40:22;100085.31;;;15.16;100.00
48652;BME280;34442;52.362;-1.302;2023-03-20T12:45:20;100093.19;;;14.88;100.00
48652;BME280;34442;52.362;-1.302;2023-03-20T12:47:50;100105.00;;;14.82;100.00
48652;BME280;34442;52.362;-1.302;2023-03-20T12:50:27;100098.44;;;14.78;100.00
48652;BME280;34442;52.362;-1.302;2023-03-20T12:53:08;100103.94;;;15.12;100.00
48652;BME280;34442;52.362;-1.302;2023-03-20T12:58:19;100094.75;;;15.13;100.00
48652;BME280;34442;52.362;-1.302;2023-03-20T13:00:53;100101.66;;;15.21;100.00
48652;BME280;34442;52.362;-1.302;2023-03-20T13:08:42;100093.31;;;14.94;100.00
48652;BME280;34442;52.362;-1.302;2023-03-20T13:13:48;100090.28;;;15.52;100.00
48652;BME280;34442;52.362;-1.302;2023-03-20T13:18:47;100086.97;;;15.50;100.00
48652;BME280;34442;52.362;-1.302;2023-03-20T13:21:17;100086.00;;;15.39;100.00
48652;BME280;34442;52.362;-1.302;2023-03-20T13:23:49;100083.09;;;15.29;100.00
48652;BME280;34442;52.362;-1.302;2023-03-20T13:26:21;100077.03;;;15.22;100.00
48652;BME280;34442;52.362;-1.302;2023-03-20T13:33:46;100081.00;;;15.31;100.00
48652;BME280;34442;52.362;-1.302;2023-03-20T13:38:47;100080.06;;;15.43;100.00
48652;BME280;34442;52.362;-1.302;2023-03-20T13:41:14;100076.19;;;15.22;100.00
48652;BME280;34442;52.362;-1.302;2023-03-20T13:43:42;100073.41;;;15.33;100.00
48652;BME280;34442;52.362;-1.302;2023-03-20T13:46:11;100071.44;;;15.29;100.00
48652;BME280;34442;52.362;-1.302;2023-03-20T13:48:39;100084.09;;;15.23;100.00
48652;BME280;34442;52.362;-1.302;2023-03-20T13:53:37;100074.47;;;15.16;100.00
48652;BME280;34442;52.362;-1.302;2023-03-20T14:07:32;100060.47;;;15.19;100.00
48652;BME280;34442;52.362;-1.302;2023-03-20T14:10:31;100070.63;;;15.11;100.00
48652;BME280;34442;52.362;-1.302;2023-03-20T14:12:46;100077.66;;;14.96;100.00
48652;BME280;34442;52.362;-1.302;2023-03-20T14:15:12;100071.31;;;14.90;100.00
48652;BME280;34442;52.362;-1.302;2023-03-20T14:17:37;100075.81;;;14.84;100.00
48652;BME280;34442;52.362;-1.302;2023-03-20T14:20:11;100073.34;;;14.83;100.00
48652;BME280;34442;52.362;-1.302;2023-03-20T14:22:38;100069.81;;;14.82;100.00
48652;BME280;34442;52.362;-1.302;2023-03-20T14:25:05;100080.59;;;14.66;100.00
48652;BME280;34442;52.362;-1.302;2023-03-20T14:27:36;100072.22;;;14.67;100.00